Main page
METAR-TAF:

METAR-TAF

Airports :

Tingo María Airport

Tingo María, Peru

latitude: 09-17-15S, longitude: 076-00-18W, elevation: 654 m

Current weather observation

The report was made 15 hours and 42 minutes ago, at 21:00 UTC
Wind 4 kt from the North
Temperature 28°C
Humidity 58%
Pressure 1017 hPa
Visibility 10 km or more
Few clouds at a height of 3000 ft

METAR: SPGM 162100Z 35004KT 9999 FEW030 28/19 Q1017 RMK TX28.5 PP000

Time: 07:42 (12:42 UTC)

Forecast

The report was made 1 hour and 42 minutes ago, at 11:00 UTC
Forecast valid from 17 at 12 UTC to 18 at 12 UTC
Wind 3 kt from variable directions
Visibility 10 km or more
Scattered clouds at a height of 2500 ft
Scattered clouds at a height of 10000 ft
Temporary
from 17 at 12 UTC to 17 at 14 UTC
Visibility: 4000 m
Broken clouds at a height of 1000 ft
mist,

TAF: SPGM 171100Z 1712/1812 VRB03KT 9999 SCT025 SCT100 TX27/1719Z TN20/1811Z TEMPO 1712/1714 4000 BR BKN010

Weather observations and forecasts of more than 4000 airports (METAR and TAF reports).

The available stations are represented by yellow and red dots on the map.

Hover mouse over dot to see the name of the station.

Then click to see weather observations and forecasts.

To change the map : click on the green buttons with a black cross to zoom in, on the green button with a dash to zoom out, or on the green arrows for adjacent maps.


METAR-TAF: